Time;durP1;ratioP1;P1;durP2;ratioP2;P2;SDS_P1;SDS_P2;PMS_P1;PMS_P2;Temp;Humidity;BMP_temperature;BMP_pressure;BME280_temperature;BME280_humidity;BME280_pressure;Samples;Min_cycle;Max_cycle;Signal;HPM_P1;HPM_P2
2021/01/29 00:00:32;;;;;;;1.55;0.30;;;11.00;88.80;;;;;;4943999;28;20404;-75
2021/01/29 00:02:59;;;;;;;1.35;0.30;;;11.00;88.90;;;;;;4944729;29;20106;-75
2021/01/29 00:05:31;;;;;;;1.35;0.30;;;11.00;89.00;;;;;;4942015;29;20130;-75
2021/01/29 00:07:57;;;;;;;;;;;11.00;89.20;;;;;;4926616;29;20063;-75
2021/01/29 00:10:22;;;;;;;0.28;0.10;;;10.90;89.30;;;;;;4943078;29;20386;-75
2021/01/29 00:12:48;;;;;;;0.68;0.40;;;10.90;89.60;;;;;;4943395;28;20027;-75
2021/01/29 00:15:18;;;;;;;0.85;0.22;;;10.90;89.60;;;;;;4944692;28;20043;-76
2021/01/29 00:17:44;;;;;;;1.75;0.30;;;10.90;89.80;;;;;;4945638;29;20177;-76
2021/01/29 00:20:15;;;;;;;1.40;0.20;;;10.90;89.90;;;;;;4943114;29;20131;-75
2021/01/29 00:22:40;;;;;;;2.08;0.40;;;10.90;90.00;;;;;;4941186;29;20036;-75
2021/01/29 00:25:08;;;;;;;1.45;0.30;;;10.90;90.00;;;;;;4941796;29;20400;-76
2021/01/29 00:27:35;;;;;;;1.02;0.30;;;10.90;90.10;;;;;;4943997;29;20050;-75
2021/01/29 00:30:01;;;;;;;0.22;0.20;;;10.90;90.20;;;;;;4944552;29;20054;-75
2021/01/29 00:32:26;;;;;;;0.90;0.20;;;10.80;90.10;;;;;;4941574;29;20039;-76
2021/01/29 00:34:52;;;;;;;0.98;0.30;;;10.80;90.20;;;;;;4942900;29;20031;-76
2021/01/29 00:37:18;;;;;;;0.43;0.30;;;10.80;90.40;;;;;;4942962;28;20039;-75
2021/01/29 00:39:43;;;;;;;0.68;0.28;;;10.80;90.70;;;;;;4943310;28;20031;-75
2021/01/29 00:42:09;;;;;;;2.22;0.30;;;10.80;91.00;;;;;;4942322;28;20129;-76
2021/01/29 00:44:35;;;;;;;1.67;0.30;;;10.70;91.20;;;;;;4943984;28;20091;-75
2021/01/29 00:47:00;;;;;;;0.52;0.43;;;10.70;91.40;;;;;;4943005;28;20036;-76
2021/01/29 00:49:26;;;;;;;0.25;0.20;;;10.70;91.60;;;;;;4959348;28;20054;-75
2021/01/29 00:51:52;;;;;;;0.40;0.28;;;10.70;91.80;;;;;;4962591;28;20043;-75
2021/01/29 00:54:17;;;;;;;2.78;0.50;;;10.70;91.70;;;;;;4982733;28;20057;-75
2021/01/29 00:56:43;;;;;;;1.13;0.32;;;10.70;92.00;;;;;;4950962;28;20081;-75
2021/01/29 00:59:08;;;;;;;1.83;0.30;;;10.70;92.20;;;;;;4970593;28;20126;-76
2021/01/29 01:01:34;;;;;;;0.73;0.30;;;10.60;92.50;;;;;;4976038;28;20058;-76
2021/01/29 01:04:00;;;;;;;1.83;0.45;;;10.60;92.60;;;;;;4983915;28;20053;-76
2021/01/29 01:06:25;;;;;;;0.73;0.30;;;10.60;93.00;;;;;;4974345;28;20391;-76
2021/01/29 01:08:51;;;;;;;4.53;0.50;;;10.60;92.80;;;;;;4975250;28;20125;-77
2021/01/29 01:11:16;;;;;;;1.65;0.43;;;10.60;92.90;;;;;;4983878;28;20424;-77
2021/01/29 01:13:42;;;;;;;1.20;0.60;;;10.60;93.10;;;;;;4954186;28;20467;-76
2021/01/29 01:16:08;;;;;;;0.90;0.50;;;10.60;93.20;;;;;;4974971;28;20038;-76
2021/01/29 01:18:33;;;;;;;2.58;0.40;;;10.60;93.30;;;;;;4974781;28;20372;-76
2021/01/29 01:20:59;;;;;;;0.77;0.60;;;10.60;93.40;;;;;;4989287;28;20483;-76
2021/01/29 01:23:25;;;;;;;0.82;0.60;;;10.50;93.50;;;;;;4961816;28;20518;-75
2021/01/29 01:25:50;;;;;;;1.67;0.52;;;10.60;93.50;;;;;;4991424;28;20124;-77
2021/01/29 01:28:16;;;;;;;2.83;0.60;;;10.50;93.60;;;;;;4991916;28;20042;-75
2021/01/29 01:30:42;;;;;;;0.93;0.50;;;10.60;93.70;;;;;;4960676;28;20499;-75
2021/01/29 01:33:08;;;;;;;1.73;0.60;;;10.60;93.70;;;;;;4973996;28;20031;-75
2021/01/29 01:35:34;;;;;;;1.05;0.40;;;10.50;94.10;;;;;;4992193;28;20034;-76
2021/01/29 01:38:00;;;;;;;2.05;0.60;;;10.50;93.90;;;;;;4968212;28;20043;-73
2021/01/29 01:40:33;;;;;;;1.35;0.70;;;10.50;93.90;;;;;;4986807;28;20038;-76
2021/01/29 01:42:58;;;;;;;0.60;0.40;;;10.50;93.90;;;;;;4992368;28;20113;-76
2021/01/29 01:45:27;;;;;;;0.68;0.40;;;10.60;94.00;;;;;;4991026;28;20065;-74
2021/01/29 01:48:03;;;;;;;1.48;0.43;;;10.50;94.00;;;;;;4973733;28;20426;-74
2021/01/29 01:50:42;;;;;;;0.50;0.30;;;10.60;93.90;;;;;;4987431;28;20049;-74
2021/01/29 01:53:38;;;;;;;1.27;0.30;;;10.50;93.90;;;;;;4943789;28;20137;-74
2021/01/29 01:56:25;;;;;;;0.40;0.30;;;10.60;94.00;;;;;;4976550;28;20048;-74
2021/01/29 01:58:59;;;;;;;1.17;0.30;;;10.50;94.00;;;;;;4995449;28;20030;-73
2021/01/29 02:01:25;;;;;;;1.13;0.40;;;10.50;94.00;;;;;;4995055;28;20424;-74
2021/01/29 02:03:54;;;;;;;0.70;0.40;;;10.50;94.10;;;;;;4995575;28;20114;-74
2021/01/29 02:06:21;;;;;;;0.52;0.40;;;10.50;94.00;;;;;;4977001;28;20042;-74
2021/01/29 02:08:47;;;;;;;1.02;0.40;;;10.60;94.00;;;;;;4994931;28;20034;-74
2021/01/29 02:11:15;;;;;;;0.38;0.25;;;10.60;93.90;;;;;;4994491;28;20396;-74
2021/01/29 02:13:41;;;;;;;1.30;0.30;;;10.60;94.20;;;;;;4977472;28;20034;-74
2021/01/29 02:16:23;;;;;;;0.65;0.40;;;10.60;93.90;;;;;;4977141;28;20146;-74
2021/01/29 02:19:13;;;;;;;1.42;0.40;;;10.60;93.90;;;;;;4977504;28;20034;-74
2021/01/29 02:22:34;;;;;;;1.40;0.40;;;10.60;93.90;;;;;;4986638;28;20128;-74
2021/01/29 02:25:24;;;;;;;1.45;1.08;;;10.60;94.10;;;;;;4964665;28;20069;-74
2021/01/29 02:27:59;;;;;;;2.15;0.40;;;10.60;93.90;;;;;;4977494;28;20046;-74
2021/01/29 02:31:02;;;;;;;2.13;0.32;;;10.60;93.90;;;;;;4976684;28;20060;-74
2021/01/29 02:33:39;;;;;;;0.90;0.38;;;10.60;93.80;;;;;;4969971;28;20076;-74
2021/01/29 02:36:31;;;;;;;0.60;0.40;;;10.70;93.80;;;;;;4976936;28;20042;-73
2021/01/29 02:39:32;;;;;;;1.60;0.30;;;10.70;93.80;;;;;;4991700;28;20113;-75
2021/01/29 02:42:26;;;;;;;0.93;0.30;;;10.70;93.70;;;;;;4946302;28;20042;-73
2021/01/29 02:45:06;;;;;;;2.75;0.30;;;10.70;93.70;;;;;;4955383;28;20038;-73
2021/01/29 02:47:44;;;;;;;0.52;0.40;;;10.70;93.60;;;;;;4994523;28;20042;-73
2021/01/29 02:50:24;;;;;;;0.30;0.20;;;10.70;93.50;;;;;;4970110;28;20038;-73
2021/01/29 02:53:16;;;;;;;1.80;0.30;;;10.80;93.40;;;;;;4960886;28;20082;-73
2021/01/29 02:55:56;;;;;;;1.87;0.30;;;10.80;93.30;;;;;;4993964;28;20050;-73
2021/01/29 02:58:28;;;;;;;1.55;0.32;;;10.80;93.20;;;;;;4976353;28;20046;-74
2021/01/29 03:01:00;;;;;;;0.28;0.20;;;10.80;93.20;;;;;;4977112;28;20035;-73
2021/01/29 03:03:39;;;;;;;0.43;0.30;;;10.80;93.00;;;;;;4994104;28;20026;-74
2021/01/29 03:06:18;;;;;;;0.55;0.25;;;10.80;93.00;;;;;;4977175;28;20042;-74
2021/01/29 03:08:57;;;;;;;1.20;0.22;;;10.80;92.90;;;;;;4976195;28;20054;-74
2021/01/29 03:11:41;;;;;;;1.00;0.30;;;10.80;92.90;;;;;;4993543;28;20035;-73
2021/01/29 03:14:43;;;;;;;1.25;0.30;;;10.90;93.00;;;;;;4993692;28;20038;-73
2021/01/29 03:17:20;;;;;;;0.47;0.30;;;10.90;92.50;;;;;;4946464;28;20053;-74
2021/01/29 03:20:00;;;;;;;0.40;0.30;;;10.90;92.50;;;;;;4993559;28;20038;-73
2021/01/29 03:22:51;;;;;;;0.47;0.20;;;10.90;92.40;;;;;;4961415;28;20106;-74
2021/01/29 03:25:33;;;;;;;0.43;0.10;;;10.90;92.40;;;;;;4948131;28;20043;-74
2021/01/29 03:28:01;;;;;;;;;;;10.80;92.40;;;;;;4976843;28;20052;-74
2021/01/29 03:30:32;;;;;;;0.52;0.20;;;10.80;92.30;;;;;;4975806;28;19913;-74
2021/01/29 03:33:00;;;;;;;0.28;0.10;;;10.90;92.20;;;;;;4976361;28;20042;-74
2021/01/29 03:35:40;;;;;;;0.88;0.22;;;10.90;92.00;;;;;;4974984;28;20049;-74
2021/01/29 03:38:26;;;;;;;2.13;0.20;;;10.80;92.10;;;;;;4993911;28;20026;-73
2021/01/29 03:41:02;;;;;;;0.30;0.20;;;10.80;92.10;;;;;;4993737;28;20034;-74
2021/01/29 03:43:33;;;;;;;0.88;0.20;;;10.80;92.20;;;;;;4975820;28;20121;-74
2021/01/29 03:46:10;;;;;;;1.27;0.22;;;10.80;92.30;;;;;;4976219;28;20042;-74
2021/01/29 03:48:56;;;;;;;0.70;0.20;;;10.80;92.10;;;;;;4975533;28;20034;-74
2021/01/29 03:52:06;;;;;;;0.30;0.28;;;10.70;92.30;;;;;;4969710;28;20073;-74
2021/01/29 03:54:52;;;;;;;0.10;0.10;;;10.70;92.20;;;;;;4988407;28;20058;-74
2021/01/29 03:57:33;;;;;;;0.88;0.20;;;10.70;92.20;;;;;;4978955;28;20042;-74
2021/01/29 04:00:04;;;;;;;1.05;0.10;;;10.60;92.20;;;;;;4993344;28;20476;-74
2021/01/29 04:02:33;;;;;;;0.75;0.10;;;10.60;92.20;;;;;;4974809;28;20046;-74
2021/01/29 04:05:26;;;;;;;1.77;0.20;;;10.60;92.30;;;;;;4975339;28;20062;-73
2021/01/29 04:08:06;;;;;;;2.05;0.20;;;10.60;92.40;;;;;;4992488;28;20038;-73
2021/01/29 04:10:33;;;;;;;0.68;0.10;;;10.50;92.30;;;;;;4974551;28;20041;-74
2021/01/29 04:13:41;;;;;;;1.10;0.10;;;10.50;92.30;;;;;;4992885;28;20053;-73
2021/01/29 04:16:12;;;;;;;0.55;0.13;;;10.50;92.40;;;;;;4974491;28;20069;-74
2021/01/29 04:18:46;;;;;;;0.40;0.10;;;10.50;92.20;;;;;;4974957;28;20035;-75
2021/01/29 04:21:45;;;;;;;2.00;0.20;;;10.50;92.30;;;;;;4970438;28;20035;-73
2021/01/29 04:24:23;;;;;;;0.30;0.10;;;10.50;92.30;;;;;;4985587;28;20046;-74
2021/01/29 04:27:04;;;;;;;0.30;0.10;;;10.40;92.40;;;;;;4992446;28;20057;-73
2021/01/29 04:29:38;;;;;;;0.22;0.10;;;10.40;92.40;;;;;;4992262;28;20523;-73
2021/01/29 04:32:08;;;;;;;0.10;0.10;;;10.40;92.30;;;;;;4974735;28;20391;-74
2021/01/29 04:34:38;;;;;;;0.15;0.13;;;10.40;92.40;;;;;;4974793;28;20057;-74
2021/01/29 04:37:10;;;;;;;0.40;0.20;;;10.40;92.30;;;;;;4977585;28;20031;-74
2021/01/29 04:39:39;;;;;;;0.55;0.10;;;10.40;92.30;;;;;;4974762;28;20073;-74
2021/01/29 04:42:18;;;;;;;1.15;0.10;;;10.40;92.20;;;;;;4992494;28;20117;-74
2021/01/29 04:45:03;;;;;;;0.88;0.10;;;10.50;92.20;;;;;;4974729;28;20045;-74
2021/01/29 04:47:48;;;;;;;0.82;0.10;;;10.50;92.30;;;;;;4991894;28;20070;-74
2021/01/29 04:50:35;;;;;;;0.10;0.08;;;10.40;92.40;;;;;;4974788;28;20483;-73
2021/01/29 04:53:17;;;;;;;1.00;0.10;;;10.50;92.40;;;;;;4975848;28;20051;-74
2021/01/29 04:56:36;;;;;;;1.73;0.10;;;10.50;92.40;;;;;;4975064;28;20533;-74
2021/01/29 04:59:07;;;;;;;1.83;0.10;;;10.50;92.50;;;;;;4950351;28;20042;-74
2021/01/29 05:01:45;;;;;;;0.40;0.20;;;10.50;92.50;;;;;;4971276;28;20049;-73
2021/01/29 05:04:25;;;;;;;1.17;0.20;;;10.50;92.70;;;;;;4968447;28;20031;-74
2021/01/29 05:07:10;;;;;;;0.40;0.20;;;10.50;92.80;;;;;;4974531;28;20096;-74
2021/01/29 05:09:58;;;;;;;0.25;0.10;;;10.50;93.00;;;;;;4991821;28;20042;-74
2021/01/29 05:12:34;;;;;;;0.35;0.10;;;10.50;93.10;;;;;;4974663;28;20027;-75
2021/01/29 05:15:51;;;;;;;0.22;0.05;;;10.40;93.30;;;;;;4992451;28;20030;-75
2021/01/29 05:18:44;;;;;;;0.03;0.03;;;10.40;93.50;;;;;;4942589;28;20034;-75
2021/01/29 05:21:28;;;;;;;0.10;0.05;;;10.40;93.60;;;;;;4941407;28;20125;-74
2021/01/29 05:24:15;;;;;;;0.43;0.10;;;10.40;93.50;;;;;;4965912;28;20042;-74
2021/01/29 05:26:41;;;;;;;0.20;0.03;;;10.40;93.40;;;;;;4974921;28;20041;-74
2021/01/29 05:29:34;;;;;;;1.23;0.20;;;10.40;93.40;;;;;;4992351;28;20026;-73
2021/01/29 05:32:31;;;;;;;0.43;0.10;;;10.40;93.30;;;;;;4995410;28;20499;-74
2021/01/29 05:35:13;;;;;;;0.08;0.08;;;10.40;93.20;;;;;;4978552;28;20039;-74
2021/01/29 05:38:03;;;;;;;0.10;0.10;;;10.40;93.40;;;;;;4978142;28;20034;-74
2021/01/29 05:40:53;;;;;;;0.15;0.10;;;10.40;93.40;;;;;;4995731;28;20035;-75
2021/01/29 05:43:24;;;;;;;0.10;0.10;;;10.40;93.20;;;;;;4950892;28;20046;-75
2021/01/29 05:46:09;;;;;;;0.88;0.40;;;10.40;93.30;;;;;;4978012;28;20133;-75
2021/01/29 05:48:49;;;;;;;1.42;0.20;;;10.40;93.60;;;;;;4979937;28;20133;-75
2021/01/29 05:51:49;;;;;;;0.75;0.20;;;10.40;93.60;;;;;;4944796;28;20125;-75
2021/01/29 05:54:26;;;;;;;1.05;0.10;;;10.40;93.50;;;;;;4971075;28;20502;-75
2021/01/29 05:57:14;;;;;;;0.90;0.20;;;10.50;93.20;;;;;;4995616;28;20066;-74
2021/01/29 05:59:51;;;;;;;0.47;0.10;;;10.50;92.80;;;;;;4977729;28;20065;-74
2021/01/29 06:02:35;;;;;;;0.17;0.10;;;10.50;92.60;;;;;;4994814;28;20035;-73
2021/01/29 06:05:22;;;;;;;0.32;0.10;;;10.60;92.00;;;;;;4963961;28;20037;-74
2021/01/29 06:08:15;;;;;;;0.38;0.10;;;10.60;91.80;;;;;;4977754;28;20048;-74
2021/01/29 06:11:21;;;;;;;0.15;0.10;;;10.60;91.60;;;;;;4977760;28;20056;-74
2021/01/29 06:14:23;;;;;;;0.75;0.10;;;10.60;91.00;;;;;;4977704;28;20062;-74
2021/01/29 06:17:43;;;;;;;0.10;0.10;;;10.60;90.90;;;;;;4977644;28;20133;-74
2021/01/29 06:20:33;;;;;;;2.22;0.20;;;10.60;90.20;;;;;;4918926;29;20067;-74
2021/01/29 06:23:24;;;;;;;0.47;0.15;;;10.70;89.40;;;;;;4961631;28;20038;-75
2021/01/29 06:26:05;;;;;;;1.50;0.10;;;10.70;89.50;;;;;;4967965;28;20051;-75
2021/01/29 06:28:37;;;;;;;0.55;0.08;;;10.70;88.30;;;;;;4976788;28;20272;-75
2021/01/29 06:31:09;;;;;;;0.10;0.00;;;10.70;87.20;;;;;;4946323;28;20034;-75
2021/01/29 06:33:56;;;;;;;1.23;0.10;;;10.70;87.70;;;;;;4976897;28;20042;-75
2021/01/29 06:36:31;;;;;;;0.22;0.10;;;10.70;87.00;;;;;;4976704;28;20046;-75
2021/01/29 06:39:09;;;;;;;0.00;0.00;;;10.70;86.10;;;;;;4994734;28;20034;-75
2021/01/29 06:42:03;;;;;;;1.45;0.03;;;10.70;85.50;;;;;;4993422;28;20035;-74
2021/01/29 06:45:11;;;;;;;0.32;0.10;;;10.70;83.20;;;;;;4994410;28;20030;-76
2021/01/29 06:47:45;;;;;;;0.25;0.10;;;10.70;83.00;;;;;;4954576;28;20463;-74
2021/01/29 06:50:48;;;;;;;0.90;0.10;;;10.70;82.70;;;;;;4970692;28;20117;-76
2021/01/29 06:53:26;;;;;;;0.80;0.10;;;10.80;82.60;;;;;;4948693;28;20133;-74
2021/01/29 06:56:07;;;;;;;0.30;0.00;;;10.80;82.50;;;;;;4977003;28;20038;-76
2021/01/29 06:59:02;;;;;;;2.15;0.50;;;10.80;83.10;;;;;;4976073;28;20034;-75
2021/01/29 07:01:56;;;;;;;1.05;0.40;;;10.80;82.80;;;;;;4969276;28;20049;-75
2021/01/29 07:04:57;;;;;;;0.10;0.10;;;10.80;83.20;;;;;;4976046;28;20030;-75
2021/01/29 07:07:48;;;;;;;1.70;0.20;;;10.70;83.00;;;;;;4975836;28;20038;-74
2021/01/29 07:10:47;;;;;;;1.42;0.55;;;10.70;82.90;;;;;;4994147;28;20041;-75
2021/01/29 07:13:50;;;;;;;0.45;0.10;;;10.70;83.60;;;;;;4965845;28;20033;-75
2021/01/29 07:16:45;;;;;;;3.13;0.20;;;10.60;84.20;;;;;;4994099;28;20089;-75
2021/01/29 07:19:41;;;;;;;1.13;0.30;;;10.70;84.90;;;;;;4961944;28;20482;-75
2021/01/29 07:22:48;;;;;;;2.08;0.25;;;10.60;85.40;;;;;;4982351;28;20043;-76
2021/01/29 07:25:32;;;;;;;1.02;0.15;;;10.60;84.50;;;;;;4932399;28;20045;-75
2021/01/29 07:28:09;;;;;;;0.20;0.10;;;10.60;84.10;;;;;;4976639;28;20097;-76
2021/01/29 07:31:17;;;;;;;0.10;0.00;;;10.60;83.90;;;;;;4993171;28;20483;-75
2021/01/29 07:33:52;;;;;;;0.32;0.10;;;10.60;83.60;;;;;;4993690;28;20034;-75
2021/01/29 07:36:42;;;;;;;0.77;0.13;;;10.60;83.70;;;;;;4993970;28;20046;-75
2021/01/29 07:39:26;;;;;;;1.40;0.10;;;10.60;83.20;;;;;;4960987;28;20483;-76
2021/01/29 07:42:19;;;;;;;0.60;0.05;;;10.70;83.20;;;;;;4976280;28;20065;-76
2021/01/29 07:45:08;;;;;;;0.43;0.10;;;10.70;83.40;;;;;;4976165;28;20031;-76
2021/01/29 07:48:03;;;;;;;0.30;0.20;;;10.70;83.50;;;;;;4975706;28;20039;-76
2021/01/29 07:50:44;;;;;;;1.85;0.40;;;10.70;83.30;;;;;;4993071;28;20144;-75
2021/01/29 07:53:20;;;;;;;0.50;0.10;;;10.70;83.20;;;;;;4946332;28;20087;-75
2021/01/29 07:56:25;;;;;;;0.20;0.10;;;10.70;82.70;;;;;;4993261;28;20053;-75
2021/01/29 07:59:06;;;;;;;0.63;0.10;;;10.60;83.20;;;;;;4993436;28;20034;-75
2021/01/29 08:01:49;;;;;;;1.50;0.15;;;10.70;83.60;;;;;;4975245;28;20034;-76
2021/01/29 08:04:33;;;;;;;0.10;0.10;;;10.70;83.30;;;;;;4976030;28;20070;-76
2021/01/29 08:07:21;;;;;;;4.47;0.25;;;10.70;83.60;;;;;;4993147;28;20062;-76
2021/01/29 08:09:57;;;;;;;1.58;0.17;;;10.70;83.30;;;;;;4975871;28;20050;-76
2021/01/29 08:12:25;;;;;;;0.70;0.10;;;10.70;83.70;;;;;;4975136;28;20498;-77
2021/01/29 08:15:39;;;;;;;0.70;0.13;;;10.70;83.70;;;;;;4975580;28;20081;-76
2021/01/29 08:18:22;;;;;;;0.52;0.10;;;10.70;84.50;;;;;;4924323;28;20377;-76
2021/01/29 08:21:12;;;;;;;0.10;0.10;;;10.70;84.90;;;;;;4991544;28;20149;-75
2021/01/29 08:24:19;;;;;;;0.20;0.10;;;10.70;85.40;;;;;;4963801;28;20483;-75
2021/01/29 08:27:05;;;;;;;0.80;0.10;;;10.70;85.40;;;;;;4992626;28;20184;-75
2021/01/29 08:29:52;;;;;;;0.95;0.25;;;10.70;85.50;;;;;;4992145;28;20038;-75
2021/01/29 08:32:43;;;;;;;1.05;0.20;;;10.80;84.70;;;;;;4992553;28;20042;-75
2021/01/29 08:35:39;;;;;;;1.20;0.20;;;10.80;84.60;;;;;;4936990;29;20040;-76
2021/01/29 08:38:42;;;;;;;1.55;0.28;;;10.80;83.60;;;;;;4936919;29;20038;-76
2021/01/29 08:41:33;;;;;;;4.47;0.20;;;10.80;83.80;;;;;;4945241;28;20097;-75
2021/01/29 08:44:20;;;;;;;0.52;0.10;;;10.80;84.00;;;;;;4974990;28;20042;-75
2021/01/29 08:46:59;;;;;;;1.42;0.20;;;10.90;84.20;;;;;;4975035;28;20044;-76
2021/01/29 08:50:02;;;;;;;0.70;0.28;;;10.90;84.50;;;;;;4992260;28;20503;-75
2021/01/29 08:52:40;;;;;;;1.02;0.10;;;10.90;83.20;;;;;;4960029;28;20035;-75
2021/01/29 08:55:19;;;;;;;0.70;0.10;;;10.90;82.50;;;;;;4961882;28;20057;-75
2021/01/29 08:58:11;;;;;;;0.70;0.20;;;11.00;81.30;;;;;;4974397;28;20035;-76
2021/01/29 09:00:37;;;;;;;1.33;0.40;;;11.10;79.50;;;;;;4992088;28;20034;-76
2021/01/29 09:03:23;;;;;;;0.52;0.17;;;11.10;79.40;;;;;;4963743;28;20535;-76
2021/01/29 09:05:58;;;;;;;3.38;0.40;;;11.10;78.70;;;;;;4976851;28;20488;-76
2021/01/29 09:08:24;;;;;;;1.10;0.20;;;11.20;78.10;;;;;;4978411;28;20049;-76
2021/01/29 09:11:03;;;;;;;2.40;0.45;;;11.20;76.30;;;;;;4978580;28;20038;-75
2021/01/29 09:13:32;;;;;;;3.75;0.45;;;11.30;76.70;;;;;;4996121;28;20042;-76
2021/01/29 09:16:31;;;;;;;1.60;0.30;;;11.30;75.60;;;;;;4978664;28;20133;-75
2021/01/29 09:19:11;;;;;;;3.40;0.32;;;11.30;75.60;;;;;;4978630;28;20443;-76
2021/01/29 09:22:02;;;;;;;1.00;0.40;;;11.40;75.90;;;;;;4957542;28;20375;-76
2021/01/29 09:24:45;;;;;;;1.67;0.32;;;11.40;74.90;;;;;;4990721;28;20058;-76
2021/01/29 09:27:32;;;;;;;2.08;0.32;;;11.40;75.40;;;;;;4966942;28;20038;-76
2021/01/29 09:30:12;;;;;;;2.10;0.40;;;11.40;75.50;;;;;;4992828;28;20518;-75
2021/01/29 09:32:55;;;;;;;5.18;0.50;;;11.50;74.80;;;;;;4974321;28;20038;-76
2021/01/29 09:35:47;;;;;;;2.53;0.60;;;11.50;73.20;;;;;;4978360;28;20042;-76
2021/01/29 09:38:19;;;;;;;1.77;0.32;;;11.50;73.40;;;;;;4976457;28;20551;-74
2021/01/29 09:41:10;;;;;;;6.03;0.70;;;11.40;73.80;;;;;;4977858;28;20081;-74
2021/01/29 09:43:48;;;;;;;5.15;0.80;;;11.40;73.90;;;;;;4977205;28;20034;-74
2021/01/29 09:46:30;;;;;;;3.10;0.73;;;11.40;72.90;;;;;;4978451;28;20081;-75
2021/01/29 09:49:22;;;;;;;2.50;0.52;;;11.40;72.70;;;;;;4977706;28;20046;-76
2021/01/29 09:51:59;;;;;;;3.67;0.77;;;11.40;70.30;;;;;;4958634;28;20395;-75
2021/01/29 09:54:30;;;;;;;5.03;0.60;;;11.50;70.60;;;;;;4973093;28;20058;-74
2021/01/29 09:57:06;;;;;;;4.95;0.73;;;11.50;71.00;;;;;;4995711;28;20038;-75
2021/01/29 09:59:42;;;;;;;5.00;0.80;;;11.50;68.70;;;;;;4990530;28;20034;-75
2021/01/29 10:02:20;;;;;;;2.28;0.40;;;11.50;68.40;;;;;;4978961;28;20042;-75
2021/01/29 10:05:03;;;;;;;8.07;1.05;;;11.50;66.90;;;;;;4995301;28;20114;-75
2021/01/29 10:07:33;;;;;;;3.45;0.70;;;11.60;67.40;;;;;;4995054;28;20046;-75
2021/01/29 10:10:32;;;;;;;4.28;0.90;;;11.60;67.00;;;;;;4995246;28;20038;-73
2021/01/29 10:13:14;;;;;;;4.03;0.65;;;11.70;65.90;;;;;;4982524;28;20035;-74
2021/01/29 10:15:44;;;;;;;6.40;0.70;;;11.80;65.10;;;;;;4970215;28;20081;-76
2021/01/29 10:18:23;;;;;;;6.03;0.98;;;11.90;65.90;;;;;;4988594;28;20035;-75
2021/01/29 10:20:52;;;;;;;6.40;0.80;;;12.00;64.80;;;;;;4992782;28;20034;-75
2021/01/29 10:23:38;;;;;;;5.40;0.70;;;12.00;64.20;;;;;;4980767;28;20039;-74
2021/01/29 10:26:28;;;;;;;2.97;0.70;;;12.00;63.40;;;;;;4977170;28;20073;-75
2021/01/29 10:29:06;;;;;;;6.13;0.82;;;12.00;63.00;;;;;;4995414;28;20037;-75
2021/01/29 10:31:48;;;;;;;6.05;1.00;;;12.10;63.60;;;;;;4994613;28;20022;-76
2021/01/29 10:34:20;;;;;;;;;;;12.10;63.70;;;;;;4978198;28;20046;-78
2021/01/29 10:36:47;;;;;;;;;;;12.10;63.50;;;;;;4977533;28;19997;-77
2021/01/29 10:39:18;;;;;;;2.65;0.45;;;12.10;63.20;;;;;;4995428;28;19937;-79
2021/01/29 10:42:11;;;;;;;4.20;0.40;;;12.10;63.70;;;;;;4994453;28;20098;-78
2021/01/29 10:44:37;;;;;;;3.85;0.50;;;12.20;63.80;;;;;;4994877;28;20027;-80
2021/01/29 10:47:21;;;;;;;1.83;0.52;;;12.30;63.30;;;;;;4977688;28;20045;-76
2021/01/29 10:50:06;;;;;;;2.85;0.77;;;12.30;62.80;;;;;;4970563;28;20034;-76
2021/01/29 10:52:59;;;;;;;5.47;0.73;;;12.40;62.00;;;;;;4961707;28;20114;-77
2021/01/29 10:55:38;;;;;;;3.63;0.55;;;12.40;62.50;;;;;;4968559;28;20050;-76
2021/01/29 10:58:25;;;;;;;4.22;0.43;;;12.30;62.60;;;;;;4977361;28;20031;-76
2021/01/29 11:00:56;;;;;;;1.40;0.40;;;12.30;62.10;;;;;;4993745;28;20081;-77
2021/01/29 11:03:57;;;;;;;3.78;0.73;;;12.30;63.00;;;;;;4977138;28;20030;-75
2021/01/29 11:06:45;;;;;;;6.07;0.60;;;12.20;63.60;;;;;;4991187;28;20121;-75
2021/01/29 11:09:36;;;;;;;8.40;0.80;;;12.10;63.80;;;;;;4977719;28;20042;-76
2021/01/29 11:12:15;;;;;;;5.83;0.77;;;12.10;63.20;;;;;;4965617;28;20414;-79
2021/01/29 11:14:54;;;;;;;6.43;0.60;;;12.10;63.90;;;;;;4977593;28;20034;-77
2021/01/29 11:17:32;;;;;;;7.47;0.90;;;12.10;65.10;;;;;;4977455;28;20034;-76
2021/01/29 11:20:01;;;;;;;3.33;0.60;;;12.10;66.00;;;;;;4994236;28;20514;-75
2021/01/29 11:22:56;;;;;;;3.72;0.50;;;12.10;65.00;;;;;;4965268;28;20037;-75
2021/01/29 11:25:27;;;;;;;8.10;0.80;;;12.20;65.20;;;;;;4972463;28;20062;-75
2021/01/29 11:28:24;;;;;;;3.63;0.65;;;12.20;65.00;;;;;;4994173;28;20030;-74
2021/01/29 11:31:07;;;;;;;3.85;0.50;;;12.20;64.60;;;;;;4917349;28;20035;-77
2021/01/29 11:33:37;;;;;;;5.80;0.68;;;12.20;65.00;;;;;;4973968;28;20189;-78
2021/01/29 11:36:11;;;;;;;8.18;1.05;;;12.10;65.50;;;;;;4977196;28;20038;-79
2021/01/29 11:38:59;;;;;;;5.68;0.63;;;12.10;64.90;;;;;;4976244;28;20035;-78
2021/01/29 11:41:40;;;;;;;3.60;0.60;;;12.00;65.60;;;;;;4935766;29;20035;-77
2021/01/29 11:44:24;;;;;;;3.67;0.65;;;11.80;68.00;;;;;;4950650;28;20026;-77
2021/01/29 11:47:34;;;;;;;4.50;0.68;;;11.80;68.90;;;;;;4993542;28;20041;-78
2021/01/29 11:50:09;;;;;;;3.25;0.57;;;11.60;68.50;;;;;;4940975;29;20043;-79
2021/01/29 11:52:43;;;;;;;3.63;0.63;;;11.70;68.50;;;;;;4943490;29;20039;-76
2021/01/29 11:55:24;;;;;;;5.57;0.70;;;11.70;68.40;;;;;;4956309;28;20026;-78
2021/01/29 11:58:15;;;;;;;4.13;0.55;;;11.80;67.90;;;;;;4975792;28;20500;-77
2021/01/29 12:00:50;;;;;;;10.48;1.08;;;11.80;68.30;;;;;;4993254;28;20086;-78
2021/01/29 12:03:20;;;;;;;3.58;0.60;;;12.00;67.70;;;;;;4976292;28;20042;-78
2021/01/29 12:05:53;;;;;;;5.80;0.98;;;12.00;68.00;;;;;;4975486;28;20042;-77
2021/01/29 12:08:29;;;;;;;8.75;0.80;;;12.00;68.10;;;;;;4976665;28;20034;-77
2021/01/29 12:11:20;;;;;;;4.03;0.70;;;12.00;65.40;;;;;;4993607;28;20049;-80
2021/01/29 12:14:18;;;;;;;3.05;0.60;;;12.10;64.50;;;;;;4993208;28;20035;-76
2021/01/29 12:16:53;;;;;;;8.60;0.70;;;12.10;64.20;;;;;;4967291;28;20030;-76
2021/01/29 12:19:45;;;;;;;4.03;0.90;;;12.10;64.50;;;;;;4983101;28;20026;-74
2021/01/29 12:22:26;;;;;;;9.70;0.90;;;12.10;65.90;;;;;;4983063;28;20468;-78
2021/01/29 12:24:57;;;;;;;6.28;0.80;;;12.00;67.80;;;;;;4976148;28;20030;-76
2021/01/29 12:27:48;;;;;;;7.93;0.75;;;11.90;69.10;;;;;;4992524;28;20103;-76
2021/01/29 12:30:29;;;;;;;4.88;0.70;;;12.00;68.40;;;;;;4974309;28;20027;-76
2021/01/29 12:33:20;;;;;;;5.63;0.73;;;12.20;68.90;;;;;;4988728;28;20081;-75
2021/01/29 12:35:51;;;;;;;5.38;0.77;;;12.30;69.50;;;;;;4990132;28;20081;-76
2021/01/29 12:38:26;;;;;;;5.35;0.65;;;12.50;69.90;;;;;;4994504;28;20533;-75
2021/01/29 12:41:05;;;;;;;3.38;0.70;;;12.40;70.20;;;;;;4975321;28;20117;-74
2021/01/29 12:43:34;;;;;;;4.20;0.47;;;12.50;69.90;;;;;;4975581;28;20081;-76
2021/01/29 12:46:26;;;;;;;7.72;0.93;;;12.30;70.80;;;;;;4993294;28;20080;-75
2021/01/29 12:49:27;;;;;;;4.60;0.63;;;12.30;70.90;;;;;;4964979;28;20033;-76
2021/01/29 12:51:56;;;;;;;5.88;0.77;;;12.10;71.20;;;;;;4969382;28;20062;-79
2021/01/29 12:54:33;;;;;;;2.92;0.70;;;11.90;71.70;;;;;;4992655;28;20049;-78
2021/01/29 12:57:32;;;;;;;2.60;0.30;;;11.80;72.20;;;;;;4975934;28;20463;-74
2021/01/29 13:00:04;;;;;;;4.32;0.65;;;11.70;74.00;;;;;;4947183;28;20089;-75
2021/01/29 13:02:55;;;;;;;2.85;0.50;;;11.60;75.30;;;;;;4974708;28;20038;-76
2021/01/29 13:05:23;;;;;;;5.97;1.13;;;11.50;76.10;;;;;;4993052;28;20122;-77
2021/01/29 13:08:29;;;;;;;2.95;0.50;;;11.50;76.70;;;;;;4975209;28;20117;-76
2021/01/29 13:11:27;;;;;;;4.22;0.55;;;11.50;76.70;;;;;;4969159;28;20030;-75
2021/01/29 13:14:07;;;;;;;3.42;0.80;;;11.40;76.60;;;;;;4974891;28;20038;-75
2021/01/29 13:17:17;;;;;;;3.25;0.50;;;11.40;76.70;;;;;;4974768;28;20038;-76
2021/01/29 13:19:45;;;;;;;5.43;0.73;;;11.30;76.40;;;;;;4975586;28;20439;-78
2021/01/29 13:22:17;;;;;;;4.43;0.80;;;11.40;76.90;;;;;;4988758;28;20030;-77
2021/01/29 13:24:44;;;;;;;5.78;0.50;;;11.40;77.20;;;;;;4974686;28;20085;-77
2021/01/29 13:27:15;;;;;;;2.30;0.40;;;11.70;76.80;;;;;;4975318;28;20110;-76
2021/01/29 13:29:41;;;;;;;5.43;0.70;;;12.30;73.90;;;;;;4974311;28;20042;-77
2021/01/29 13:32:23;;;;;;;7.55;0.80;;;12.50;72.90;;;;;;4975149;28;20085;-77
2021/01/29 13:34:50;;;;;;;2.95;0.60;;;12.20;73.30;;;;;;4991812;28;20324;-77
2021/01/29 13:37:28;;;;;;;3.20;0.45;;;11.90;74.30;;;;;;4992406;28;20045;-77
2021/01/29 13:40:15;;;;;;;2.92;0.60;;;11.80;74.20;;;;;;4992269;28;20022;-77
2021/01/29 13:42:42;;;;;;;4.07;0.60;;;11.60;74.10;;;;;;4992190;28;20031;-76
2021/01/29 13:45:15;;;;;;;1.83;0.60;;;11.40;74.90;;;;;;4974999;28;20531;-76
2021/01/29 13:47:47;;;;;;;2.80;0.50;;;11.30;76.00;;;;;;4971185;28;20065;-75
2021/01/29 13:50:35;;;;;;;5.05;0.57;;;11.30;78.10;;;;;;4987322;28;20039;-78
2021/01/29 13:53:05;;;;;;;2.90;0.77;;;11.00;80.30;;;;;;4977364;28;20042;-78
2021/01/29 13:55:33;;;;;;;2.30;0.35;;;10.90;80.00;;;;;;4995548;28;20061;-77
2021/01/29 13:58:34;;;;;;;4.03;0.65;;;11.00;79.70;;;;;;4981565;28;20030;-77